createdAt,value
2019-06-15T00:03:00.659Z,15.10
2019-06-15T00:08:04.853Z,20.10
2019-06-15T00:13:08.390Z,17.23
2019-06-15T00:18:11.192Z,16.90
2019-06-15T00:23:14.638Z,15.93
2019-06-15T00:28:17.788Z,20.70
2019-06-15T00:33:21.032Z,16.60
2019-06-15T00:38:24.154Z,26.83
2019-06-15T00:43:27.296Z,20.00
2019-06-15T00:48:30.168Z,17.50
2019-06-15T00:53:33.326Z,17.60
2019-06-15T00:58:35.807Z,17.47
2019-06-15T01:03:39.322Z,15.50
2019-06-15T01:08:42.159Z,12.87
2019-06-15T01:13:45.287Z,19.40
2019-06-15T01:18:48.686Z,18.33
2019-06-15T01:23:51.480Z,13.57
2019-06-15T01:28:54.703Z,16.63
2019-06-15T01:33:58.137Z,18.27
2019-06-15T01:39:01.372Z,10.63
2019-06-15T01:44:05.119Z,13.40
2019-06-15T01:49:08.205Z,18.53
2019-06-15T01:54:11.620Z,11.57
2019-06-15T01:59:14.759Z,15.30
2019-06-15T02:04:17.561Z,13.63
2019-06-15T02:09:20.680Z,9.00
2019-06-15T02:14:23.137Z,11.07
2019-06-15T02:19:26.571Z,11.07
2019-06-15T02:24:29.963Z,16.90
2019-06-15T02:29:33.071Z,10.70
2019-06-15T02:34:36.486Z,14.90
2019-06-15T02:39:39.606Z,18.40
2019-06-15T02:44:42.711Z,18.10
2019-06-15T02:49:46.201Z,18.33
2019-06-15T02:54:49.043Z,19.50
2019-06-15T02:59:52.487Z,16.53
2019-06-15T03:04:55.652Z,16.10
2019-06-15T03:09:59.348Z,19.23
2019-06-15T03:15:02.489Z,16.43
2019-06-15T03:20:05.665Z,11.50
2019-06-15T03:25:10.388Z,12.13
2019-06-15T03:30:13.410Z,11.83
2019-06-15T03:35:16.748Z,16.03
2019-06-15T03:40:19.518Z,13.23
2019-06-15T03:45:22.450Z,18.80
2019-06-15T03:50:25.586Z,15.40
2019-06-15T03:55:28.686Z,19.47
2019-06-15T04:00:59.340Z,9.03
2019-06-15T04:06:02.758Z,20.97
2019-06-15T04:11:05.897Z,12.93
2019-06-15T04:16:09.384Z,11.60
2019-06-15T04:21:12.838Z,11.83
2019-06-15T04:26:16.271Z,14.30
2019-06-15T04:31:19.397Z,13.43
2019-06-15T04:36:22.524Z,13.77
2019-06-15T04:41:25.337Z,15.83
2019-06-15T04:46:28.501Z,16.40
2019-06-15T04:51:31.609Z,13.93
2019-06-15T04:56:34.746Z,10.80
2019-06-15T05:01:37.864Z,11.07
2019-06-15T05:06:40.709Z,13.67
2019-06-15T05:11:44.122Z,24.27
2019-06-15T05:16:47.241Z,13.97
2019-06-15T05:21:50.627Z,12.73
2019-06-15T05:27:05.544Z,16.47
2019-06-15T05:31:58.752Z,12.80
2019-06-15T05:37:01.909Z,13.40
2019-06-15T05:42:04.887Z,20.40
2019-06-15T05:47:08.017Z,14.80
2019-06-15T05:52:11.483Z,22.03
2019-06-15T05:57:21.462Z,17.63
2019-06-15T06:02:21.680Z,20.13
2019-06-15T06:07:23.490Z,21.87
2019-06-15T06:12:26.481Z,25.83
2019-06-15T06:17:29.333Z,22.67
2019-06-15T06:22:32.460Z,20.00
2019-06-15T06:27:36.893Z,17.80
2019-06-15T06:32:40.556Z,13.70
2019-06-15T06:37:43.096Z,17.27
2019-06-15T06:42:45.907Z,22.73
2019-06-15T06:47:49.066Z,22.50
2019-06-15T06:52:52.198Z,26.90
2019-06-15T06:57:57.256Z,26.20
2019-06-15T07:03:00.693Z,15.43
2019-06-15T07:08:03.873Z,20.27
2019-06-15T07:13:06.970Z,18.23
2019-06-15T07:18:09.795Z,17.17
2019-06-15T07:23:13.225Z,21.40
2019-06-15T07:28:16.040Z,26.83
2019-06-15T07:33:19.200Z,21.53
2019-06-15T07:38:22.048Z,23.17
2019-06-15T07:43:24.843Z,24.27
2019-06-15T07:48:28.019Z,21.40
2019-06-15T07:53:30.832Z,18.43
2019-06-15T07:58:33.987Z,16.77
2019-06-15T08:03:37.436Z,20.20
2019-06-15T08:08:40.298Z,14.37
2019-06-15T08:13:43.237Z,12.73
2019-06-15T08:18:46.099Z,21.93
2019-06-15T08:23:49.244Z,14.20
2019-06-15T08:35:00.506Z,11.50
2019-06-15T08:40:04.754Z,11.50
2019-06-15T08:45:08.395Z,14.63
2019-06-15T08:50:11.902Z,13.20
2019-06-15T08:55:14.783Z,12.27
2019-06-15T09:00:18.540Z,11.63
2019-06-15T09:05:21.532Z,9.97
2019-06-15T09:10:24.543Z,9.73
2019-06-15T09:15:35.900Z,8.07
2019-06-15T09:20:39.537Z,12.97
2019-06-15T09:25:41.733Z,7.00
2019-06-15T09:30:45.331Z,7.50
2019-06-15T09:35:48.954Z,8.83
2019-06-15T09:40:52.497Z,7.80
2019-06-15T09:45:56.028Z,7.43
2019-06-15T09:50:59.853Z,10.43
2019-06-15T09:56:02.900Z,9.67
2019-06-15T10:01:05.961Z,13.70
2019-06-15T10:06:11.691Z,9.77
2019-06-15T10:11:14.840Z,8.80
2019-06-15T10:16:19.506Z,11.30
2019-06-15T10:21:22.810Z,9.30
2019-06-15T10:26:25.765Z,9.47
2019-06-15T10:31:29.508Z,7.33
2019-06-15T10:36:32.815Z,7.77
2019-06-15T10:41:36.222Z,7.63
2019-06-15T10:46:40.001Z,9.50
2019-06-15T10:51:44.321Z,11.30
2019-06-15T10:56:47.662Z,8.40
2019-06-15T11:01:50.982Z,7.30
2019-06-15T11:06:54.112Z,13.90
2019-06-15T11:11:57.968Z,15.10
2019-06-15T11:17:02.052Z,7.33
2019-06-15T11:22:07.226Z,8.00
2019-06-15T11:27:10.469Z,9.50
2019-06-15T11:32:13.093Z,8.10
2019-06-15T11:37:15.717Z,5.23
2019-06-15T11:42:20.583Z,5.37
2019-06-15T11:47:24.240Z,9.70
2019-06-15T11:52:27.824Z,13.33
2019-06-15T11:57:31.093Z,10.47
2019-06-15T12:02:34.345Z,12.03
2019-06-15T12:07:37.311Z,9.53
2019-06-15T12:12:40.995Z,14.20
2019-06-15T12:17:43.973Z,10.53
2019-06-15T12:22:46.787Z,8.50
2019-06-15T12:27:50.284Z,12.63
2019-06-15T12:32:53.859Z,25.03
2019-06-15T12:37:57.533Z,9.17
2019-06-15T12:43:00.837Z,10.30
2019-06-15T12:48:04.365Z,8.20
2019-06-15T12:53:08.131Z,8.33
2019-06-15T12:58:11.805Z,8.60
2019-06-15T13:03:14.770Z,11.80
2019-06-15T13:08:17.721Z,9.07
2019-06-15T13:13:21.212Z,10.50
2019-06-15T13:18:24.510Z,10.83
2019-06-15T13:23:28.140Z,10.00
2019-06-15T13:28:31.506Z,15.90
2019-06-15T13:33:35.132Z,11.63
2019-06-15T13:38:38.611Z,13.90
2019-06-15T13:43:44.578Z,13.53
2019-06-15T13:48:48.217Z,13.60
2019-06-15T13:53:51.274Z,15.97
2019-06-15T13:58:54.562Z,23.33
2019-06-15T14:03:58.315Z,19.40
2019-06-15T14:09:05.088Z,17.43
2019-06-15T14:14:06.512Z,12.97
2019-06-15T14:19:11.112Z,16.27
2019-06-15T14:24:14.815Z,11.40
2019-06-15T14:29:17.769Z,11.90
2019-06-15T14:34:23.812Z,16.97
2019-06-15T14:39:26.854Z,12.87
2019-06-15T14:44:30.482Z,13.33
2019-06-15T14:49:33.905Z,12.83
2019-06-15T14:54:37.405Z,17.57
2019-06-15T14:59:52.014Z,12.03
2019-06-15T15:04:46.080Z,15.50
2019-06-15T15:09:50.115Z,10.40
2019-06-15T15:14:56.258Z,11.17
2019-06-15T15:19:59.050Z,17.00
2019-06-15T15:25:02.756Z,10.47
2019-06-15T15:30:06.640Z,15.80
2019-06-15T15:35:10.107Z,18.53
2019-06-15T15:40:16.517Z,15.80
2019-06-15T15:45:19.228Z,15.03
2019-06-15T15:50:22.908Z,16.93
2019-06-15T15:55:26.492Z,11.10
2019-06-15T16:00:32.150Z,17.10
2019-06-15T16:05:37.082Z,23.17
2019-06-15T16:10:40.655Z,23.10
2019-06-15T16:15:46.124Z,17.90
2019-06-15T16:20:49.281Z,26.50
2019-06-15T16:25:53.616Z,20.43
2019-06-15T16:31:06.707Z,14.53
2019-06-15T16:36:01.588Z,10.67
2019-06-15T16:41:04.780Z,14.70
2019-06-15T16:46:09.227Z,9.73
2019-06-15T16:51:12.128Z,4.70
2019-06-15T16:56:16.601Z,4.70
2019-06-15T17:01:20.123Z,7.90
2019-06-15T17:06:26.674Z,4.93
2019-06-15T17:11:29.067Z,4.03
2019-06-15T17:16:32.393Z,4.57
2019-06-15T17:21:37.239Z,3.83
2019-06-15T17:26:40.466Z,7.27
2019-06-15T17:31:42.732Z,5.87
2019-06-15T17:36:47.679Z,3.80
2019-06-15T17:41:50.884Z,3.63
2019-06-15T17:46:56.603Z,4.57
2019-06-15T17:52:00.076Z,3.00
2019-06-15T17:57:06.056Z,4.27
2019-06-15T18:02:11.551Z,2.87
2019-06-15T18:07:16.693Z,3.50
2019-06-15T18:12:20.223Z,5.80
2019-06-15T18:17:23.289Z,2.93
2019-06-15T18:22:26.957Z,3.53
2019-06-15T18:27:30.066Z,3.50
2019-06-15T18:32:33.752Z,3.17
2019-06-15T18:37:37.260Z,3.23
2019-06-15T18:42:40.682Z,2.80
2019-06-15T18:47:44.317Z,4.30
2019-06-15T18:52:47.384Z,2.90
2019-06-15T18:57:50.303Z,3.97
2019-06-15T19:02:56.186Z,3.67
2019-06-15T19:07:59.252Z,4.03
2019-06-15T19:13:03.678Z,3.77
2019-06-15T19:18:07.711Z,8.10
2019-06-15T19:23:11.325Z,9.37
2019-06-15T19:28:16.540Z,13.90
2019-06-15T19:33:20.158Z,21.67
2019-06-15T19:38:22.856Z,15.10
2019-06-15T19:43:25.640Z,19.30
2019-06-15T19:48:28.953Z,19.13
2019-06-15T19:53:31.905Z,16.53
2019-06-15T19:58:35.396Z,21.63
2019-06-15T20:03:38.837Z,15.00
2019-06-15T20:08:42.467Z,15.60
2019-06-15T20:13:47.389Z,19.07
2019-06-15T20:18:50.900Z,12.20
2019-06-15T20:23:56.448Z,10.23
2019-06-15T20:28:59.146Z,12.87
2019-06-15T20:34:02.535Z,6.90
2019-06-15T20:39:07.284Z,12.87
2019-06-15T20:44:10.358Z,7.80
2019-06-15T20:49:13.324Z,11.20
2019-06-15T20:54:16.932Z,4.63
2019-06-15T20:59:20.525Z,5.10
2019-06-15T21:04:23.845Z,5.33
2019-06-15T21:09:27.729Z,4.63
2019-06-15T21:14:30.280Z,2.63
2019-06-15T21:19:35.949Z,3.63
2019-06-15T21:24:38.958Z,8.63
2019-06-15T21:29:42.172Z,2.37
2019-06-15T21:34:46.463Z,3.93
2019-06-15T21:39:49.063Z,6.50
2019-06-15T21:44:52.065Z,4.40
2019-06-15T21:49:55.995Z,3.33
2019-06-15T21:54:59.139Z,3.33
2019-06-15T22:00:02.125Z,4.43
2019-06-15T22:05:07.102Z,3.20
2019-06-15T22:10:11.035Z,3.23
2019-06-15T22:15:16.116Z,1.97
2019-06-15T22:20:19.807Z,2.40
2019-06-15T22:25:22.840Z,2.43
2019-06-15T22:30:27.709Z,4.13
2019-06-15T22:35:31.056Z,5.60
2019-06-15T22:40:36.309Z,4.10
2019-06-15T22:45:39.532Z,9.23
2019-06-15T22:50:42.841Z,5.50
2019-06-15T22:55:46.494Z,4.33
2019-06-15T23:00:49.896Z,7.20
2019-06-15T23:05:53.246Z,4.03
2019-06-15T23:10:57.291Z,3.73
2019-06-15T23:16:00.742Z,6.43
2019-06-15T23:21:06.226Z,3.27
2019-06-15T23:26:09.182Z,4.13
2019-06-15T23:31:12.628Z,2.70
2019-06-15T23:36:21.016Z,5.00
2019-06-15T23:41:24.266Z,4.97
2019-06-15T23:46:27.887Z,6.33
2019-06-15T23:51:31.160Z,3.87
2019-06-15T23:56:36.696Z,8.70
